Kirsehir, Turkey

9:21 AM EEST on September 23, 2014 (GMT +0300)
Kapadokya | Change Station
CLOSE
Current Station
Airport
Location: NEVSEHIR,
Elevation: 3100 ft
Nearby Weather Stations

Elev 3100 ft 38.77 °N, 34.53 °E | Updated 31 minutes ago

Clear
Clear
66 °F
Feels Like 66 °F
N
6
Wind Variable Wind from East

Today
High -- | Low -- °F
--% Chance of Precip.
Yesterday
High -- | Low -- °F
Precip. -- in
6:31 AM 6:39 PM
Waning Crescent, 1% visible
Pressure 29.98 in
Visibility -9999.0 miles
Clouds
Dew Point 45 °F
Humidity 46%
Rainfall 0.00 in
Snow Depth Not available.
UV Not available.
Pollen Not available.
Air Quality Not available.
Flu Activity Not available.
METAR LTAZ 230550Z 10005KT CAVOK 19/07 Q1015 RMK RWY29 07004KT 030V160

More Conditions Fewer Conditions

Pressure 29.98 in
Visibility -9999.0 miles
Clouds
Dew Point 45 °F
Humidity 46%
Rainfall 0.00 in
Snow Depth Not available.
UV Not available.
Pollen Not available.
Air Quality Not available.
Flu Activity Not available.
METAR LTAZ 230550Z 10005KT CAVOK 19/07 Q1015 RMK RWY29 07004KT 030V160

More Conditions Fewer Conditions

10-Day Weather Forecast

Almanac

Astronomy

Sep. 23, 2014 Rise Set
Actual Time 6:31 AM EEST 6:39 PM EEST
Civil Twilight 6:04 AM EEST 7:05 PM EEST
Nautical Twilight 5:33 AM EEST 7:37 PM EEST
Astronomical Twilight 5:01 AM EEST 8:08 PM EEST
Moon 5:36 AM EEST 6:07 PM EEST
Length of Visible Light 13h 01m
Length of Day
12h 07m
Tomorrow will be 2m 32s shorter.
Waning Crescent, 1% of the Moon is Illuminated
Today
Waning Crescent
Sep 24
New
Oct 1
First Quarter
Oct 8
Full
Oct 15
Last Quarter

Yesterday's Extremes

Country Highs Country Lows

Community

WunderPhotos

Upload Photos

1,755,608 photos uploaded!

Nearby

Snow Depth

Not available.

Earthquake Activity

City Distance Mag. Time & Date
No recent earthquake activity has been reported nearby.
Minimum magnitude displayed is 2.5.

Coastal Water Temperatures

Place Temperature
No Stations Reporting

Nearby Weather Stations